createdAt,value
2023-01-27T00:06:12.540Z,10.9
2023-01-27T00:12:35.587Z,11.8
2023-01-27T00:18:55.642Z,11.8
2023-01-27T00:25:18.544Z,11.6
2023-01-27T00:31:38.677Z,11.6
2023-01-27T00:38:01.582Z,14.1
2023-01-27T00:44:21.704Z,14.1
2023-01-27T00:50:44.751Z,13.6
2023-01-27T00:57:04.747Z,13.6
2023-01-27T01:03:27.757Z,14.1
2023-01-27T01:09:47.694Z,14.1
2023-01-27T01:16:10.869Z,14.4
2023-01-27T01:22:30.653Z,14.4
2023-01-27T01:28:53.662Z,16.1
2023-01-27T01:35:13.610Z,16.1
2023-01-27T01:41:36.537Z,12
2023-01-27T01:47:56.495Z,12
2023-01-27T01:54:19.680Z,12.2
2023-01-27T02:00:39.605Z,12.2
2023-01-27T02:07:02.617Z,12.7
2023-01-27T02:13:22.529Z,12.7
2023-01-27T02:19:45.738Z,12.3
2023-01-27T02:26:05.700Z,12.3
2023-01-27T02:32:28.731Z,10.6
2023-01-27T02:38:48.590Z,10.6
2023-01-27T02:45:11.947Z,7.1
2023-01-27T02:51:31.577Z,7.1
2023-01-27T02:57:54.528Z,6.3
2023-01-27T03:04:14.658Z,6.3
2023-01-27T03:10:37.550Z,19
2023-01-27T03:16:57.532Z,19
2023-01-27T03:23:20.756Z,8.9
2023-01-27T03:29:40.635Z,8.9
2023-01-27T03:36:03.633Z,7.5
2023-01-27T03:42:23.515Z,7.5
2023-01-27T03:48:46.662Z,8
2023-01-27T03:55:06.603Z,8
2023-01-27T04:01:29.552Z,4.7
2023-01-27T04:24:00.628Z,8.1
2023-01-27T04:30:20.550Z,8.1
2023-01-27T04:36:43.680Z,2.5
2023-01-27T04:43:03.532Z,2.5
2023-01-27T04:49:26.749Z,4.4
2023-01-27T04:55:46.485Z,4.4
2023-01-27T05:02:09.803Z,4
2023-01-27T05:08:29.621Z,4
2023-01-27T05:14:52.649Z,4.3
2023-01-27T05:21:12.673Z,4.3
2023-01-27T05:27:35.542Z,6.7
2023-01-27T05:33:55.538Z,6.7
2023-01-27T05:40:18.613Z,4.5
2023-01-27T05:46:38.618Z,4.5
2023-01-27T05:53:01.516Z,5.9
2023-01-27T05:59:21.541Z,5.9
2023-01-27T06:05:44.627Z,3.9
2023-01-27T06:12:04.565Z,3.9
2023-01-27T06:18:27.496Z,6.8
2023-01-27T06:24:47.519Z,6.8
2023-01-27T06:31:10.828Z,2.7
2023-01-27T06:37:30.651Z,2.7
2023-01-27T06:43:53.667Z,4.7
2023-01-27T06:50:14.020Z,4.7
2023-01-27T06:56:36.789Z,7.5
2023-01-27T07:02:56.696Z,7.5
2023-01-27T07:09:19.660Z,5.9
2023-01-27T07:15:39.659Z,5.9
2023-01-27T07:22:02.482Z,4.2
2023-01-27T07:28:22.604Z,4.2
2023-01-27T07:34:45.552Z,5.2
2023-01-27T07:41:05.607Z,5.2
2023-01-27T07:47:28.584Z,3
2023-01-27T07:53:48.525Z,3
2023-01-27T08:00:12.051Z,3.6
2023-01-27T08:06:31.659Z,3.6
2023-01-27T08:12:54.832Z,2.9
2023-01-27T08:19:14.580Z,2.9
2023-01-27T08:25:37.484Z,4.5
2023-01-27T08:31:57.631Z,4.5
2023-01-27T08:38:20.499Z,4.4
2023-01-27T08:44:40.544Z,4.4
2023-01-27T08:51:03.719Z,3.8
2023-01-27T08:57:23.589Z,3.8
2023-01-27T09:03:46.644Z,5.2
2023-01-27T09:10:15.259Z,5.2
2023-01-27T09:34:18.460Z,4.4
2023-01-27T09:40:41.508Z,4.4
2023-01-27T09:47:01.519Z,4.4
2023-01-27T09:53:24.734Z,2.5
2023-01-27T09:59:44.614Z,2.5
2023-01-27T10:06:07.664Z,1.6
2023-01-27T10:12:27.567Z,1.6
2023-01-27T10:18:50.648Z,1.3
2023-01-27T10:25:10.660Z,1.3
2023-01-27T10:31:33.641Z,1.1
2023-01-27T10:37:53.611Z,1.1
2023-01-27T10:44:16.584Z,0.6
2023-01-27T10:50:36.580Z,0.6
2023-01-27T10:56:59.707Z,0.7
2023-01-27T11:03:19.615Z,0.7
2023-01-27T11:09:42.618Z,0.3
2023-01-27T11:16:02.567Z,0.3
2023-01-27T11:22:25.508Z,0.7
2023-01-27T11:28:45.644Z,0.7
2023-01-27T11:35:08.730Z,0.4
2023-01-27T11:41:30.229Z,0.4
2023-01-27T11:47:53.988Z,1.2
2023-01-27T11:54:13.883Z,1.2
2023-01-27T12:00:36.906Z,1.1
2023-01-27T12:06:56.685Z,1.1
2023-01-27T12:13:19.578Z,0.9
2023-01-27T12:19:39.543Z,0.9
2023-01-27T12:26:02.660Z,0.6
2023-01-27T12:32:22.634Z,0.6
2023-01-27T12:38:45.555Z,0.8
2023-01-27T12:45:05.583Z,0.8
2023-01-27T12:51:28.559Z,1.6
2023-01-27T12:57:48.671Z,1.6
2023-01-27T13:04:11.559Z,0.5
2023-01-27T13:10:32.074Z,0.5
2023-01-27T13:16:54.536Z,0.6
2023-01-27T13:23:14.676Z,0.6
2023-01-27T13:29:37.582Z,0.5
2023-01-27T13:35:57.573Z,0.5
2023-01-27T13:42:20.650Z,0.4
2023-01-27T13:48:40.737Z,0.4
2023-01-27T13:55:03.525Z,0.4
2023-01-27T14:01:23.647Z,0.4
2023-01-27T14:07:46.683Z,0.1
2023-01-27T14:14:06.613Z,0.1
2023-01-27T14:20:29.582Z,1.6
2023-01-27T14:43:18.443Z,0.3
2023-01-27T14:49:38.490Z,0.3
2023-01-27T14:56:01.497Z,0.8
2023-01-27T15:02:21.822Z,0.8
2023-01-27T15:08:44.660Z,0.8
2023-01-27T15:15:04.568Z,0.8
2023-01-27T15:21:27.719Z,0.2
2023-01-27T15:27:47.612Z,0.2
2023-01-27T15:34:10.607Z,1
2023-01-27T15:40:30.600Z,1
2023-01-27T15:46:53.592Z,0.6
2023-01-27T15:53:13.554Z,0.6
2023-01-27T15:59:37.061Z,1.3
2023-01-27T16:05:56.599Z,1.3
2023-01-27T16:12:20.100Z,0.1
2023-01-27T16:18:39.626Z,0.1
2023-01-27T16:25:02.642Z,0.9
2023-01-27T16:31:22.790Z,0.9
2023-01-27T16:37:45.730Z,0.4
2023-01-27T16:44:05.641Z,0.4
2023-01-27T16:50:28.674Z,0.5
2023-01-27T16:56:48.631Z,0.5
2023-01-27T17:03:11.963Z,1.5
2023-01-27T17:09:31.817Z,1.5
2023-01-27T17:15:54.620Z,0.7
2023-01-27T17:22:14.685Z,0.7
2023-01-27T17:28:37.502Z,1.3
2023-01-27T17:34:57.746Z,1.3
2023-01-27T17:41:20.591Z,0.8
2023-01-27T17:47:40.627Z,0.8
2023-01-27T17:54:03.864Z,1.1
2023-01-27T18:00:23.597Z,1.1
2023-01-27T18:06:46.903Z,1.2
2023-01-27T18:13:06.635Z,1.2
2023-01-27T18:19:29.646Z,1.3
2023-01-27T18:25:51.473Z,1.3
2023-01-27T18:32:12.535Z,0.3
2023-01-27T18:38:32.516Z,0.3
2023-01-27T18:44:55.523Z,1.4
2023-01-27T18:51:15.580Z,1.4
2023-01-27T18:57:38.574Z,3
2023-01-27T19:03:58.573Z,3
2023-01-27T19:10:21.676Z,3.8
2023-01-27T19:16:41.609Z,3.8
2023-01-27T19:23:04.530Z,1.8
2023-01-27T19:45:52.567Z,3.3
2023-01-27T19:52:12.491Z,3.3
2023-01-27T19:58:35.682Z,5.1
2023-01-27T20:04:55.659Z,5.1
2023-01-27T20:11:18.812Z,3.3
2023-01-27T20:17:38.515Z,3.3
2023-01-27T20:24:01.697Z,2.3
2023-01-27T20:30:21.746Z,2.3
2023-01-27T20:36:44.512Z,2.7
2023-01-27T20:43:04.702Z,2.7
2023-01-27T20:49:27.532Z,2.7
2023-01-27T20:55:47.601Z,2.7
2023-01-27T21:02:10.718Z,3.3
2023-01-27T21:08:30.517Z,3.3
2023-01-27T21:14:53.547Z,4.2
2023-01-27T21:21:13.564Z,4.2
2023-01-27T21:27:36.564Z,2.8
2023-01-27T21:33:56.758Z,2.8
2023-01-27T21:40:19.729Z,2.9
2023-01-27T21:46:40.575Z,2.9
2023-01-27T21:53:02.800Z,2.6
2023-01-27T21:59:22.520Z,2.6
2023-01-27T22:05:45.837Z,2.1
2023-01-27T22:12:05.590Z,2.1
2023-01-27T22:18:28.843Z,4.2
2023-01-27T22:24:48.554Z,4.2
2023-01-27T22:31:11.593Z,3.7
2023-01-27T22:37:31.862Z,3.7
2023-01-27T22:43:54.523Z,2.3
2023-01-27T22:50:14.630Z,2.3
2023-01-27T22:56:37.709Z,2.4
2023-01-27T23:22:08.530Z,5.7
2023-01-27T23:28:28.479Z,5.7
2023-01-27T23:34:51.519Z,5.7
2023-01-27T23:41:11.507Z,5.7
2023-01-27T23:47:34.537Z,2.5
2023-01-27T23:53:54.574Z,2.5
